Aérodrome :
LOGIN :

S'inscrire | Disclaimer

   EN    FR    IT 

 










Légende :    VFR   VFR Marginal   IFR   IFR Intensif   IFR Très Intensif
Visi : 
Plafond : 
>= 8 km
>= 3000ft
5 à 8 km
1000 à 3000 ft
1500m à 5 km
500 à 1000 ft
800 à 1500m
200 à 500 ft
< 800m
< 200 ft
Symboles :   Orages  Brouillard  Fortes neiges  Fortes précipitations  Vent > 20 kt
SIGMETs :   Divers  Orages  Givrage  Turbulence  Onde Orograph.  Cendres Volcan.






- Altitude de l'aérodrome : 84 ft


LFBC - Cazaux

DERNIER METAR :
  • 250100Z AUTO 35002KT CAVOK 10/09 Q1015 TEMPO 3000 BR

METARs EXPIRÉS :
  • 250030Z AUTO VRB03KT 9999 ///CB 09/07 Q1015 TEMPO 3000 BR BECMG NSC
  • 250000Z AUTO 33003KT 9999 ///CB 11/10 Q1015 TEMPO 4000 SHRA BECMG NSC
  • 242330Z AUTO 00000KT 9999 ///CB 11/09 Q1015 TEMPO 4000 SHRA BECMG NSC
  • 242300Z AUTO 27002KT CAVOK 10/08 Q1016 TEMPO 4000 SHRA SCT025TCU
  • 242230Z AUTO 00000KT 9999 FEW034 BKN220 11/08 Q1016 TEMPO 4000 SHRA SCT025TCU

TAF TAF LFBC
Valide du 24 à 21h jusqu'au 25 à 21h UTC


242000Z 2421/2521 VRB02KT CAVOK
TEMPO 2421/2501 4000 SHRA SCT025TCU
PROB30
TEMPO 2502/2507 3000 BR



MET'MAP, la Météo Aéronautique d'un coup d'oeil ! - Copyright ORBIFLY Décembre 2007 - Disclaimer

ORBIFLY MET'MAP TEAM :

Programmation & Développement : Alexandra Zaïnal
Sur une idée originale de : Baudouin d'Aumeries
Soutien technique & logistique : Manuel Goepfert
Assistance : Marc-Olivier Méhu




SOURCES & CREDITS :

   NOAA